sensor_id;sensor_type;location;lat;lon;timestamp;temperature;humidity
23544;DHT22;11950;51.230;4.012;2022-11-14T00:00:09;5.80;99.90
23544;DHT22;11950;51.230;4.012;2022-11-14T00:02:59;5.90;99.90
23544;DHT22;11950;51.230;4.012;2022-11-14T00:05:45;6.00;99.90
23544;DHT22;11950;51.230;4.012;2022-11-14T00:08:30;5.90;99.90
23544;DHT22;11950;51.230;4.012;2022-11-14T00:11:14;6.30;99.90
23544;DHT22;11950;51.230;4.012;2022-11-14T00:13:59;6.10;99.90
23544;DHT22;11950;51.230;4.012;2022-11-14T00:16:43;6.00;99.90
23544;DHT22;11950;51.230;4.012;2022-11-14T00:19:28;6.00;99.90
23544;DHT22;11950;51.230;4.012;2022-11-14T00:22:12;6.00;99.90
23544;DHT22;11950;51.230;4.012;2022-11-14T00:24:57;6.00;99.90
23544;DHT22;11950;51.230;4.012;2022-11-14T00:27:42;6.10;99.90
23544;DHT22;11950;51.230;4.012;2022-11-14T00:30:27;6.00;99.90
23544;DHT22;11950;51.230;4.012;2022-11-14T00:33:12;5.90;99.90
23544;DHT22;11950;51.230;4.012;2022-11-14T00:35:56;6.00;99.90
23544;DHT22;11950;51.230;4.012;2022-11-14T00:38:41;5.90;99.90
23544;DHT22;11950;51.230;4.012;2022-11-14T00:41:26;5.90;99.90
23544;DHT22;11950;51.230;4.012;2022-11-14T00:44:11;5.80;99.90
23544;DHT22;11950;51.230;4.012;2022-11-14T00:46:55;5.90;99.90
23544;DHT22;11950;51.230;4.012;2022-11-14T00:49:40;5.80;99.90
23544;DHT22;11950;51.230;4.012;2022-11-14T00:52:24;5.80;99.90
23544;DHT22;11950;51.230;4.012;2022-11-14T00:55:09;6.00;99.90
23544;DHT22;11950;51.230;4.012;2022-11-14T00:57:54;5.80;99.90
23544;DHT22;11950;51.230;4.012;2022-11-14T01:00:38;6.00;99.90
23544;DHT22;11950;51.230;4.012;2022-11-14T01:03:23;5.80;99.90
23544;DHT22;11950;51.230;4.012;2022-11-14T01:06:10;5.80;99.90
23544;DHT22;11950;51.230;4.012;2022-11-14T01:08:55;6.20;99.90
23544;DHT22;11950;51.230;4.012;2022-11-14T01:11:39;5.90;99.90
23544;DHT22;11950;51.230;4.012;2022-11-14T01:14:24;5.70;99.90
23544;DHT22;11950;51.230;4.012;2022-11-14T01:17:09;5.70;99.90
23544;DHT22;11950;51.230;4.012;2022-11-14T01:19:54;5.70;99.90
23544;DHT22;11950;51.230;4.012;2022-11-14T01:22:39;5.80;99.90
23544;DHT22;11950;51.230;4.012;2022-11-14T01:25:23;6.40;99.90
23544;DHT22;11950;51.230;4.012;2022-11-14T01:28:09;5.60;99.90
23544;DHT22;11950;51.230;4.012;2022-11-14T01:30:55;5.70;99.90
23544;DHT22;11950;51.230;4.012;2022-11-14T01:33:39;5.60;99.90
23544;DHT22;11950;51.230;4.012;2022-11-14T01:36:24;5.50;99.90
23544;DHT22;11950;51.230;4.012;2022-11-14T01:39:09;5.60;99.90
23544;DHT22;11950;51.230;4.012;2022-11-14T01:41:54;5.50;99.90
23544;DHT22;11950;51.230;4.012;2022-11-14T01:44:50;5.70;99.90
23544;DHT22;11950;51.230;4.012;2022-11-14T01:47:35;5.60;99.90
23544;DHT22;11950;51.230;4.012;2022-11-14T01:50:20;5.50;99.90
23544;DHT22;11950;51.230;4.012;2022-11-14T01:53:05;5.70;99.90
23544;DHT22;11950;51.230;4.012;2022-11-14T01:55:49;5.40;99.90
23544;DHT22;11950;51.230;4.012;2022-11-14T01:58:38;5.70;99.90
23544;DHT22;11950;51.230;4.012;2022-11-14T02:01:25;5.90;99.90
23544;DHT22;11950;51.230;4.012;2022-11-14T02:04:15;6.30;99.90
23544;DHT22;11950;51.230;4.012;2022-11-14T02:07:02;5.50;99.90
23544;DHT22;11950;51.230;4.012;2022-11-14T02:09:48;5.30;99.90
23544;DHT22;11950;51.230;4.012;2022-11-14T02:12:33;6.40;99.90
23544;DHT22;11950;51.230;4.012;2022-11-14T02:15:18;5.30;99.90
23544;DHT22;11950;51.230;4.012;2022-11-14T02:18:04;5.30;99.90
23544;DHT22;11950;51.230;4.012;2022-11-14T02:20:48;5.30;99.90
23544;DHT22;11950;51.230;4.012;2022-11-14T02:23:33;5.30;99.90
23544;DHT22;11950;51.230;4.012;2022-11-14T02:26:19;5.40;99.90
23544;DHT22;11950;51.230;4.012;2022-11-14T02:29:05;5.10;99.90
23544;DHT22;11950;51.230;4.012;2022-11-14T02:31:50;5.20;99.90
23544;DHT22;11950;51.230;4.012;2022-11-14T02:34:35;5.60;99.90
23544;DHT22;11950;51.230;4.012;2022-11-14T02:37:20;5.20;99.90
23544;DHT22;11950;51.230;4.012;2022-11-14T02:40:05;5.20;99.90
23544;DHT22;11950;51.230;4.012;2022-11-14T02:42:50;5.30;99.90
23544;DHT22;11950;51.230;4.012;2022-11-14T02:45:35;5.30;99.90
23544;DHT22;11950;51.230;4.012;2022-11-14T02:48:20;5.30;99.90
23544;DHT22;11950;51.230;4.012;2022-11-14T02:51:05;5.20;99.90
23544;DHT22;11950;51.230;4.012;2022-11-14T02:53:49;5.20;99.90
23544;DHT22;11950;51.230;4.012;2022-11-14T02:56:34;5.30;99.90
23544;DHT22;11950;51.230;4.012;2022-11-14T02:59:19;5.50;99.90
23544;DHT22;11950;51.230;4.012;2022-11-14T03:02:03;5.10;99.90
23544;DHT22;11950;51.230;4.012;2022-11-14T03:04:48;5.10;99.90
23544;DHT22;11950;51.230;4.012;2022-11-14T03:07:32;5.00;99.90
23544;DHT22;11950;51.230;4.012;2022-11-14T03:10:17;5.00;99.90
23544;DHT22;11950;51.230;4.012;2022-11-14T03:13:02;4.90;99.90
23544;DHT22;11950;51.230;4.012;2022-11-14T03:15:46;5.50;99.90
23544;DHT22;11950;51.230;4.012;2022-11-14T03:18:31;4.80;99.90
23544;DHT22;11950;51.230;4.012;2022-11-14T03:21:18;4.80;99.90
23544;DHT22;11950;51.230;4.012;2022-11-14T03:24:03;4.80;99.90
23544;DHT22;11950;51.230;4.012;2022-11-14T03:26:48;4.80;99.90
23544;DHT22;11950;51.230;4.012;2022-11-14T03:29:33;4.70;99.90
23544;DHT22;11950;51.230;4.012;2022-11-14T03:32:18;4.80;99.90
23544;DHT22;11950;51.230;4.012;2022-11-14T03:35:02;4.80;99.90
23544;DHT22;11950;51.230;4.012;2022-11-14T03:37:47;4.70;99.90
23544;DHT22;11950;51.230;4.012;2022-11-14T03:40:32;4.70;99.90
23544;DHT22;11950;51.230;4.012;2022-11-14T03:43:18;4.70;99.90
23544;DHT22;11950;51.230;4.012;2022-11-14T03:46:03;4.70;99.90
23544;DHT22;11950;51.230;4.012;2022-11-14T03:48:48;4.60;99.90
23544;DHT22;11950;51.230;4.012;2022-11-14T03:51:33;4.60;99.90
23544;DHT22;11950;51.230;4.012;2022-11-14T03:54:17;4.60;99.90
23544;DHT22;11950;51.230;4.012;2022-11-14T03:57:02;4.60;99.90
23544;DHT22;11950;51.230;4.012;2022-11-14T03:59:46;4.60;99.90
23544;DHT22;11950;51.230;4.012;2022-11-14T04:02:31;4.50;99.90
23544;DHT22;11950;51.230;4.012;2022-11-14T04:05:15;4.60;99.90
23544;DHT22;11950;51.230;4.012;2022-11-14T04:08:04;4.60;99.90
23544;DHT22;11950;51.230;4.012;2022-11-14T04:10:49;4.50;99.90
23544;DHT22;11950;51.230;4.012;2022-11-14T04:13:33;4.70;99.90
23544;DHT22;11950;51.230;4.012;2022-11-14T04:16:18;4.60;99.90
23544;DHT22;11950;51.230;4.012;2022-11-14T04:19:02;4.60;99.90
23544;DHT22;11950;51.230;4.012;2022-11-14T04:21:47;4.60;99.90
23544;DHT22;11950;51.230;4.012;2022-11-14T04:24:31;4.50;99.90
23544;DHT22;11950;51.230;4.012;2022-11-14T04:27:16;4.60;99.90
23544;DHT22;11950;51.230;4.012;2022-11-14T04:30:00;5.20;99.90
23544;DHT22;11950;51.230;4.012;2022-11-14T04:32:45;4.50;99.90
23544;DHT22;11950;51.230;4.012;2022-11-14T04:35:31;4.40;99.90
23544;DHT22;11950;51.230;4.012;2022-11-14T04:38:16;4.50;99.90
23544;DHT22;11950;51.230;4.012;2022-11-14T04:41:01;4.40;99.90
23544;DHT22;11950;51.230;4.012;2022-11-14T04:43:45;4.40;99.90
23544;DHT22;11950;51.230;4.012;2022-11-14T04:46:30;4.40;99.90
23544;DHT22;11950;51.230;4.012;2022-11-14T04:49:15;4.50;99.90
23544;DHT22;11950;51.230;4.012;2022-11-14T04:51:59;4.50;99.90
23544;DHT22;11950;51.230;4.012;2022-11-14T04:54:44;4.60;99.90
23544;DHT22;11950;51.230;4.012;2022-11-14T04:57:28;4.60;99.90
23544;DHT22;11950;51.230;4.012;2022-11-14T05:00:13;4.50;99.90
23544;DHT22;11950;51.230;4.012;2022-11-14T05:02:58;4.60;99.90
23544;DHT22;11950;51.230;4.012;2022-11-14T05:05:43;4.60;99.90
23544;DHT22;11950;51.230;4.012;2022-11-14T05:08:28;4.60;99.90
23544;DHT22;11950;51.230;4.012;2022-11-14T05:11:18;4.70;99.90
23544;DHT22;11950;51.230;4.012;2022-11-14T05:14:03;4.70;99.90
23544;DHT22;11950;51.230;4.012;2022-11-14T05:16:48;4.80;99.90
23544;DHT22;11950;51.230;4.012;2022-11-14T05:19:33;4.90;99.90
23544;DHT22;11950;51.230;4.012;2022-11-14T05:22:17;5.00;99.90
23544;DHT22;11950;51.230;4.012;2022-11-14T05:25:02;5.10;99.90
23544;DHT22;11950;51.230;4.012;2022-11-14T05:27:47;5.20;99.90
23544;DHT22;11950;51.230;4.012;2022-11-14T05:30:32;5.20;99.90
23544;DHT22;11950;51.230;4.012;2022-11-14T05:33:16;5.20;99.90
23544;DHT22;11950;51.230;4.012;2022-11-14T05:36:06;5.30;99.90
23544;DHT22;11950;51.230;4.012;2022-11-14T05:38:51;5.30;99.90
23544;DHT22;11950;51.230;4.012;2022-11-14T05:41:36;5.30;99.90
23544;DHT22;11950;51.230;4.012;2022-11-14T05:44:20;5.40;99.90
23544;DHT22;11950;51.230;4.012;2022-11-14T05:47:05;5.40;99.90
23544;DHT22;11950;51.230;4.012;2022-11-14T05:49:49;5.40;99.90
23544;DHT22;11950;51.230;4.012;2022-11-14T05:52:34;5.40;99.90
23544;DHT22;11950;51.230;4.012;2022-11-14T05:55:18;5.40;99.90
23544;DHT22;11950;51.230;4.012;2022-11-14T05:58:03;5.40;99.90
23544;DHT22;11950;51.230;4.012;2022-11-14T06:00:47;5.40;99.90
23544;DHT22;11950;51.230;4.012;2022-11-14T06:03:33;5.40;99.90
23544;DHT22;11950;51.230;4.012;2022-11-14T06:06:20;5.40;99.90
23544;DHT22;11950;51.230;4.012;2022-11-14T06:09:04;5.40;99.90
23544;DHT22;11950;51.230;4.012;2022-11-14T06:11:49;5.40;99.90
23544;DHT22;11950;51.230;4.012;2022-11-14T06:14:34;5.30;99.90
23544;DHT22;11950;51.230;4.012;2022-11-14T06:17:18;5.40;99.90
23544;DHT22;11950;51.230;4.012;2022-11-14T06:20:04;5.40;99.90
23544;DHT22;11950;51.230;4.012;2022-11-14T06:22:49;5.40;99.90
23544;DHT22;11950;51.230;4.012;2022-11-14T06:25:37;5.30;99.90
23544;DHT22;11950;51.230;4.012;2022-11-14T06:28:21;5.30;99.90
23544;DHT22;11950;51.230;4.012;2022-11-14T06:31:06;5.30;99.90
23544;DHT22;11950;51.230;4.012;2022-11-14T06:33:51;5.30;99.90
23544;DHT22;11950;51.230;4.012;2022-11-14T06:36:36;5.20;99.90
23544;DHT22;11950;51.230;4.012;2022-11-14T06:39:21;5.20;99.90
23544;DHT22;11950;51.230;4.012;2022-11-14T06:42:05;5.20;99.90
23544;DHT22;11950;51.230;4.012;2022-11-14T06:44:49;5.10;99.90
23544;DHT22;11950;51.230;4.012;2022-11-14T06:47:34;5.10;99.90
23544;DHT22;11950;51.230;4.012;2022-11-14T06:50:18;5.20;99.90
23544;DHT22;11950;51.230;4.012;2022-11-14T06:53:03;5.10;99.90
23544;DHT22;11950;51.230;4.012;2022-11-14T06:56:07;5.10;99.90
23544;DHT22;11950;51.230;4.012;2022-11-14T06:58:51;5.00;99.90
23544;DHT22;11950;51.230;4.012;2022-11-14T07:01:36;4.90;99.90
23544;DHT22;11950;51.230;4.012;2022-11-14T07:04:21;4.90;99.90
23544;DHT22;11950;51.230;4.012;2022-11-14T07:07:05;4.90;99.90
23544;DHT22;11950;51.230;4.012;2022-11-14T07:09:50;4.70;99.90
23544;DHT22;11950;51.230;4.012;2022-11-14T07:12:35;4.70;99.90
23544;DHT22;11950;51.230;4.012;2022-11-14T07:15:20;4.70;99.90
23544;DHT22;11950;51.230;4.012;2022-11-14T07:18:04;4.70;99.90
23544;DHT22;11950;51.230;4.012;2022-11-14T07:20:49;4.70;99.90
23544;DHT22;11950;51.230;4.012;2022-11-14T07:23:34;5.20;99.90
23544;DHT22;11950;51.230;4.012;2022-11-14T07:26:19;4.70;99.90
23544;DHT22;11950;51.230;4.012;2022-11-14T07:29:04;4.60;99.90
23544;DHT22;11950;51.230;4.012;2022-11-14T07:31:48;4.50;99.90
23544;DHT22;11950;51.230;4.012;2022-11-14T07:34:33;4.60;99.90
23544;DHT22;11950;51.230;4.012;2022-11-14T07:37:18;4.70;99.90
23544;DHT22;11950;51.230;4.012;2022-11-14T07:40:03;4.70;99.90
23544;DHT22;11950;51.230;4.012;2022-11-14T07:42:48;4.70;99.90
23544;DHT22;11950;51.230;4.012;2022-11-14T07:45:33;4.70;99.90
23544;DHT22;11950;51.230;4.012;2022-11-14T07:48:17;4.70;99.90
23544;DHT22;11950;51.230;4.012;2022-11-14T07:51:05;4.60;99.90
23544;DHT22;11950;51.230;4.012;2022-11-14T07:53:51;4.70;99.90
23544;DHT22;11950;51.230;4.012;2022-11-14T07:56:37;4.80;99.90
23544;DHT22;11950;51.230;4.012;2022-11-14T07:59:21;4.80;99.90
23544;DHT22;11950;51.230;4.012;2022-11-14T08:02:12;4.90;99.90
23544;DHT22;11950;51.230;4.012;2022-11-14T08:04:57;4.90;99.90
23544;DHT22;11950;51.230;4.012;2022-11-14T08:07:42;5.00;99.90
23544;DHT22;11950;51.230;4.012;2022-11-14T08:10:27;5.00;99.90
23544;DHT22;11950;51.230;4.012;2022-11-14T08:13:12;5.10;99.90
23544;DHT22;11950;51.230;4.012;2022-11-14T08:15:56;5.20;99.90
23544;DHT22;11950;51.230;4.012;2022-11-14T08:18:41;5.30;99.90
23544;DHT22;11950;51.230;4.012;2022-11-14T08:21:25;5.40;99.90
23544;DHT22;11950;51.230;4.012;2022-11-14T08:24:10;5.50;99.90
23544;DHT22;11950;51.230;4.012;2022-11-14T08:26:55;5.60;99.90
23544;DHT22;11950;51.230;4.012;2022-11-14T08:29:39;5.70;99.90
23544;DHT22;11950;51.230;4.012;2022-11-14T08:32:25;5.70;99.90
23544;DHT22;11950;51.230;4.012;2022-11-14T08:35:09;5.80;99.90
23544;DHT22;11950;51.230;4.012;2022-11-14T08:37:54;5.90;99.90
23544;DHT22;11950;51.230;4.012;2022-11-14T08:40:39;6.00;99.90
23544;DHT22;11950;51.230;4.012;2022-11-14T08:43:24;6.10;99.90
23544;DHT22;11950;51.230;4.012;2022-11-14T08:46:09;6.30;99.90
23544;DHT22;11950;51.230;4.012;2022-11-14T08:48:53;6.30;99.90
23544;DHT22;11950;51.230;4.012;2022-11-14T08:51:38;6.40;99.90
23544;DHT22;11950;51.230;4.012;2022-11-14T08:54:22;6.50;99.90
23544;DHT22;11950;51.230;4.012;2022-11-14T08:57:07;6.50;99.90
23544;DHT22;11950;51.230;4.012;2022-11-14T08:59:52;6.70;99.90
23544;DHT22;11950;51.230;4.012;2022-11-14T09:02:36;6.80;99.90
23544;DHT22;11950;51.230;4.012;2022-11-14T09:05:21;6.80;99.90
23544;DHT22;11950;51.230;4.012;2022-11-14T09:08:06;6.90;99.90
23544;DHT22;11950;51.230;4.012;2022-11-14T09:10:51;7.00;99.90
23544;DHT22;11950;51.230;4.012;2022-11-14T09:13:35;7.20;99.90
23544;DHT22;11950;51.230;4.012;2022-11-14T09:16:20;7.10;99.90
23544;DHT22;11950;51.230;4.012;2022-11-14T09:19:05;7.20;99.90
23544;DHT22;11950;51.230;4.012;2022-11-14T09:21:49;7.40;99.90
23544;DHT22;11950;51.230;4.012;2022-11-14T09:24:33;7.40;99.90
23544;DHT22;11950;51.230;4.012;2022-11-14T09:27:18;7.50;99.90
23544;DHT22;11950;51.230;4.012;2022-11-14T09:30:04;7.60;99.90
23544;DHT22;11950;51.230;4.012;2022-11-14T09:32:50;7.60;99.90
23544;DHT22;11950;51.230;4.012;2022-11-14T09:35:35;7.70;99.90
23544;DHT22;11950;51.230;4.012;2022-11-14T09:38:21;7.80;99.90
23544;DHT22;11950;51.230;4.012;2022-11-14T09:41:25;7.90;99.90
23544;DHT22;11950;51.230;4.012;2022-11-14T09:44:27;8.00;99.90
23544;DHT22;11950;51.230;4.012;2022-11-14T09:47:23;8.00;99.90
23544;DHT22;11950;51.230;4.012;2022-11-14T09:50:34;8.20;99.90
23544;DHT22;11950;51.230;4.012;2022-11-14T09:53:28;8.20;99.90
23544;DHT22;11950;51.230;4.012;2022-11-14T09:56:19;8.30;99.90
23544;DHT22;11950;51.230;4.012;2022-11-14T09:59:10;8.40;99.90
23544;DHT22;11950;51.230;4.012;2022-11-14T10:02:10;8.40;99.90
23544;DHT22;11950;51.230;4.012;2022-11-14T10:10:58;8.60;99.90
23544;DHT22;11950;51.230;4.012;2022-11-14T10:17:44;8.80;99.90
23544;DHT22;11950;51.230;4.012;2022-11-14T10:20:43;8.80;99.90
23544;DHT22;11950;51.230;4.012;2022-11-14T10:26:30;9.00;99.90
23544;DHT22;11950;51.230;4.012;2022-11-14T10:35:30;9.20;99.90
23544;DHT22;11950;51.230;4.012;2022-11-14T10:38:23;9.20;99.90
23544;DHT22;11950;51.230;4.012;2022-11-14T10:41:10;9.30;99.90
23544;DHT22;11950;51.230;4.012;2022-11-14T10:43:56;9.40;99.90
23544;DHT22;11950;51.230;4.012;2022-11-14T10:46:55;9.50;99.90
23544;DHT22;11950;51.230;4.012;2022-11-14T10:49:44;9.50;99.90
23544;DHT22;11950;51.230;4.012;2022-11-14T10:52:37;9.60;99.90
23544;DHT22;11950;51.230;4.012;2022-11-14T10:55:23;9.70;99.90
23544;DHT22;11950;51.230;4.012;2022-11-14T10:58:12;9.70;99.90
23544;DHT22;11950;51.230;4.012;2022-11-14T11:01:30;9.80;99.90
23544;DHT22;11950;51.230;4.012;2022-11-14T11:04:23;9.90;99.90
23544;DHT22;11950;51.230;4.012;2022-11-14T11:09:59;10.00;99.90
23544;DHT22;11950;51.230;4.012;2022-11-14T11:13:02;10.10;99.90
23544;DHT22;11950;51.230;4.012;2022-11-14T11:15:54;10.10;99.90
23544;DHT22;11950;51.230;4.012;2022-11-14T11:18:41;10.10;99.90
23544;DHT22;11950;51.230;4.012;2022-11-14T11:21:25;10.20;99.90
23544;DHT22;11950;51.230;4.012;2022-11-14T11:24:10;10.20;99.90
23544;DHT22;11950;51.230;4.012;2022-11-14T11:30:26;10.30;99.90
23544;DHT22;11950;51.230;4.012;2022-11-14T11:33:31;10.30;99.90
23544;DHT22;11950;51.230;4.012;2022-11-14T11:36:19;10.40;99.90
23544;DHT22;11950;51.230;4.012;2022-11-14T11:39:11;10.40;99.90
23544;DHT22;11950;51.230;4.012;2022-11-14T11:42:05;10.50;99.90
23544;DHT22;11950;51.230;4.012;2022-11-14T11:44:55;10.50;99.90
23544;DHT22;11950;51.230;4.012;2022-11-14T11:47:45;10.50;99.90
23544;DHT22;11950;51.230;4.012;2022-11-14T11:50:31;10.60;99.90
23544;DHT22;11950;51.230;4.012;2022-11-14T11:53:36;10.60;99.90
23544;DHT22;11950;51.230;4.012;2022-11-14T11:56:29;10.60;99.90
23544;DHT22;11950;51.230;4.012;2022-11-14T12:02:18;10.60;99.90
23544;DHT22;11950;51.230;4.012;2022-11-14T12:05:04;10.60;99.90
23544;DHT22;11950;51.230;4.012;2022-11-14T12:08:20;10.70;99.90
23544;DHT22;11950;51.230;4.012;2022-11-14T12:11:15;10.70;99.90
23544;DHT22;11950;51.230;4.012;2022-11-14T12:23:55;10.80;99.90
23544;DHT22;11950;51.230;4.012;2022-11-14T12:32:50;10.80;99.90
23544;DHT22;11950;51.230;4.012;2022-11-14T12:35:36;10.90;99.90
23544;DHT22;11950;51.230;4.012;2022-11-14T12:38:23;10.90;99.90
23544;DHT22;11950;51.230;4.012;2022-11-14T12:41:08;10.90;99.90
23544;DHT22;11950;51.230;4.012;2022-11-14T12:49:59;11.00;99.90
23544;DHT22;11950;51.230;4.012;2022-11-14T12:56:00;11.00;99.90
23544;DHT22;11950;51.230;4.012;2022-11-14T12:59:09;11.00;99.90
23544;DHT22;11950;51.230;4.012;2022-11-14T13:02:25;11.00;99.90
23544;DHT22;11950;51.230;4.012;2022-11-14T13:08:45;10.90;99.90
23544;DHT22;11950;51.230;4.012;2022-11-14T13:11:34;10.80;99.90
23544;DHT22;11950;51.230;4.012;2022-11-14T13:14:52;10.80;99.90
23544;DHT22;11950;51.230;4.012;2022-11-14T13:21:28;10.70;99.90
23544;DHT22;11950;51.230;4.012;2022-11-14T13:27:45;10.50;99.90
23544;DHT22;11950;51.230;4.012;2022-11-14T13:31:04;10.40;99.90
23544;DHT22;11950;51.230;4.012;2022-11-14T13:33:54;10.30;99.90
23544;DHT22;11950;51.230;4.012;2022-11-14T13:37:11;10.20;99.90
23544;DHT22;11950;51.230;4.012;2022-11-14T13:40:10;10.10;99.90
23544;DHT22;11950;51.230;4.012;2022-11-14T13:43:20;9.90;99.90
23544;DHT22;11950;51.230;4.012;2022-11-14T13:52:17;9.70;99.90
23544;DHT22;11950;51.230;4.012;2022-11-14T13:55:02;9.70;99.90
23544;DHT22;11950;51.230;4.012;2022-11-14T13:58:03;9.60;99.90
23544;DHT22;11950;51.230;4.012;2022-11-14T14:16:24;9.20;99.90
23544;DHT22;11950;51.230;4.012;2022-11-14T14:25:37;9.10;99.90
23544;DHT22;11950;51.230;4.012;2022-11-14T14:31:21;9.00;99.90
23544;DHT22;11950;51.230;4.012;2022-11-14T14:34:39;9.00;99.90
23544;DHT22;11950;51.230;4.012;2022-11-14T14:37:28;9.10;99.90
23544;DHT22;11950;51.230;4.012;2022-11-14T14:40:31;8.90;99.90
23544;DHT22;11950;51.230;4.012;2022-11-14T14:43:48;8.80;99.90
23544;DHT22;11950;51.230;4.012;2022-11-14T14:46:33;8.80;99.90
23544;DHT22;11950;51.230;4.012;2022-11-14T14:49:21;8.80;99.90
23544;DHT22;11950;51.230;4.012;2022-11-14T14:52:34;8.80;99.90
23544;DHT22;11950;51.230;4.012;2022-11-14T14:55:29;8.70;99.90
23544;DHT22;11950;51.230;4.012;2022-11-14T15:01:07;8.70;99.90
23544;DHT22;11950;51.230;4.012;2022-11-14T15:04:01;8.70;99.90
23544;DHT22;11950;51.230;4.012;2022-11-14T15:06:47;8.60;99.90
23544;DHT22;11950;51.230;4.012;2022-11-14T15:09:32;8.60;99.90
23544;DHT22;11950;51.230;4.012;2022-11-14T15:12:17;8.60;99.90
23544;DHT22;11950;51.230;4.012;2022-11-14T15:15:02;8.60;99.90
23544;DHT22;11950;51.230;4.012;2022-11-14T15:17:49;8.60;99.90
23544;DHT22;11950;51.230;4.012;2022-11-14T15:20:34;8.50;99.90
23544;DHT22;11950;51.230;4.012;2022-11-14T15:23:19;8.50;99.90
23544;DHT22;11950;51.230;4.012;2022-11-14T15:26:12;8.50;99.90
23544;DHT22;11950;51.230;4.012;2022-11-14T15:32:17;8.50;99.90
23544;DHT22;11950;51.230;4.012;2022-11-14T15:41:20;8.40;99.90
23544;DHT22;11950;51.230;4.012;2022-11-14T15:44:05;8.40;99.90
23544;DHT22;11950;51.230;4.012;2022-11-14T15:46:50;8.50;99.90
23544;DHT22;11950;51.230;4.012;2022-11-14T15:49:36;8.50;99.90
23544;DHT22;11950;51.230;4.012;2022-11-14T15:55:21;8.50;99.90
23544;DHT22;11950;51.230;4.012;2022-11-14T15:58:10;8.50;99.90
23544;DHT22;11950;51.230;4.012;2022-11-14T16:00:55;8.60;99.90
23544;DHT22;11950;51.230;4.012;2022-11-14T16:03:44;8.60;99.90
23544;DHT22;11950;51.230;4.012;2022-11-14T16:06:32;8.60;99.90
23544;DHT22;11950;51.230;4.012;2022-11-14T16:09:18;8.60;99.90
23544;DHT22;11950;51.230;4.012;2022-11-14T16:12:05;8.60;99.90
23544;DHT22;11950;51.230;4.012;2022-11-14T16:14:50;8.60;99.90
23544;DHT22;11950;51.230;4.012;2022-11-14T16:17:35;8.50;99.90
23544;DHT22;11950;51.230;4.012;2022-11-14T16:20:27;8.60;99.90
23544;DHT22;11950;51.230;4.012;2022-11-14T16:23:12;8.60;99.90
23544;DHT22;11950;51.230;4.012;2022-11-14T16:25:57;8.70;99.90
23544;DHT22;11950;51.230;4.012;2022-11-14T16:28:42;8.70;99.90
23544;DHT22;11950;51.230;4.012;2022-11-14T16:31:26;8.70;99.90
23544;DHT22;11950;51.230;4.012;2022-11-14T16:34:17;8.70;99.90
23544;DHT22;11950;51.230;4.012;2022-11-14T16:37:03;8.70;99.90
23544;DHT22;11950;51.230;4.012;2022-11-14T16:39:48;8.70;99.90
23544;DHT22;11950;51.230;4.012;2022-11-14T16:42:33;8.60;99.90
23544;DHT22;11950;51.230;4.012;2022-11-14T16:45:17;8.70;99.90
23544;DHT22;11950;51.230;4.012;2022-11-14T16:48:04;8.70;99.90
23544;DHT22;11950;51.230;4.012;2022-11-14T16:50:49;8.70;99.90
23544;DHT22;11950;51.230;4.012;2022-11-14T16:53:34;8.80;99.90
23544;DHT22;11950;51.230;4.012;2022-11-14T16:56:18;8.80;99.90
23544;DHT22;11950;51.230;4.012;2022-11-14T16:59:03;8.80;99.90
23544;DHT22;11950;51.230;4.012;2022-11-14T17:01:48;8.80;99.90
23544;DHT22;11950;51.230;4.012;2022-11-14T17:04:33;8.90;99.90
23544;DHT22;11950;51.230;4.012;2022-11-14T17:07:18;8.80;99.90
23544;DHT22;11950;51.230;4.012;2022-11-14T17:10:04;8.80;99.90
23544;DHT22;11950;51.230;4.012;2022-11-14T17:12:48;8.90;99.90
23544;DHT22;11950;51.230;4.012;2022-11-14T17:15:34;8.90;99.90
23544;DHT22;11950;51.230;4.012;2022-11-14T17:18:19;8.90;99.90
23544;DHT22;11950;51.230;4.012;2022-11-14T17:21:05;8.90;99.90
23544;DHT22;11950;51.230;4.012;2022-11-14T17:23:58;8.80;99.90
23544;DHT22;11950;51.230;4.012;2022-11-14T17:26:46;8.90;99.90
23544;DHT22;11950;51.230;4.012;2022-11-14T17:29:31;8.90;99.90
23544;DHT22;11950;51.230;4.012;2022-11-14T17:32:15;8.90;99.90
23544;DHT22;11950;51.230;4.012;2022-11-14T17:35:00;9.00;99.90
23544;DHT22;11950;51.230;4.012;2022-11-14T17:37:45;9.00;99.90
23544;DHT22;11950;51.230;4.012;2022-11-14T17:40:29;8.90;99.90
23544;DHT22;11950;51.230;4.012;2022-11-14T17:43:15;9.00;99.90
23544;DHT22;11950;51.230;4.012;2022-11-14T17:46:01;9.00;99.90
23544;DHT22;11950;51.230;4.012;2022-11-14T17:48:47;9.00;99.90
23544;DHT22;11950;51.230;4.012;2022-11-14T17:51:32;9.00;99.90
23544;DHT22;11950;51.230;4.012;2022-11-14T17:54:16;9.00;99.90
23544;DHT22;11950;51.230;4.012;2022-11-14T17:57:01;9.00;99.90
23544;DHT22;11950;51.230;4.012;2022-11-14T17:59:45;9.00;99.90
23544;DHT22;11950;51.230;4.012;2022-11-14T18:02:31;9.00;99.90
23544;DHT22;11950;51.230;4.012;2022-11-14T18:05:15;9.00;99.90
23544;DHT22;11950;51.230;4.012;2022-11-14T18:08:00;9.00;99.90
23544;DHT22;11950;51.230;4.012;2022-11-14T18:10:45;9.00;99.90
23544;DHT22;11950;51.230;4.012;2022-11-14T18:13:30;9.00;99.90
23544;DHT22;11950;51.230;4.012;2022-11-14T18:16:17;9.00;99.90
23544;DHT22;11950;51.230;4.012;2022-11-14T18:19:02;9.00;99.90
23544;DHT22;11950;51.230;4.012;2022-11-14T18:21:47;9.00;99.90
23544;DHT22;11950;51.230;4.012;2022-11-14T18:24:32;9.00;99.90
23544;DHT22;11950;51.230;4.012;2022-11-14T18:27:18;9.00;99.90
23544;DHT22;11950;51.230;4.012;2022-11-14T18:30:03;9.10;99.90
23544;DHT22;11950;51.230;4.012;2022-11-14T18:32:48;9.10;99.90
23544;DHT22;11950;51.230;4.012;2022-11-14T18:35:33;9.10;99.90
23544;DHT22;11950;51.230;4.012;2022-11-14T18:38:18;9.10;99.90
23544;DHT22;11950;51.230;4.012;2022-11-14T18:41:06;9.10;99.90
23544;DHT22;11950;51.230;4.012;2022-11-14T18:43:54;9.10;99.90
23544;DHT22;11950;51.230;4.012;2022-11-14T18:46:39;9.10;99.90
23544;DHT22;11950;51.230;4.012;2022-11-14T18:49:24;9.10;99.90
23544;DHT22;11950;51.230;4.012;2022-11-14T18:52:11;9.10;99.90
23544;DHT22;11950;51.230;4.012;2022-11-14T18:54:55;9.10;99.90
23544;DHT22;11950;51.230;4.012;2022-11-14T18:57:40;9.20;99.90
23544;DHT22;11950;51.230;4.012;2022-11-14T19:00:25;9.20;99.90
23544;DHT22;11950;51.230;4.012;2022-11-14T19:03:10;9.10;99.90
23544;DHT22;11950;51.230;4.012;2022-11-14T19:05:54;9.20;99.90
23544;DHT22;11950;51.230;4.012;2022-11-14T19:08:40;9.20;99.90
23544;DHT22;11950;51.230;4.012;2022-11-14T19:11:25;9.20;99.90
23544;DHT22;11950;51.230;4.012;2022-11-14T19:14:29;9.20;99.90
23544;DHT22;11950;51.230;4.012;2022-11-14T19:17:14;9.20;99.90
23544;DHT22;11950;51.230;4.012;2022-11-14T19:20:04;9.30;99.90
23544;DHT22;11950;51.230;4.012;2022-11-14T19:22:48;9.20;99.90
23544;DHT22;11950;51.230;4.012;2022-11-14T19:25:34;9.30;99.90
23544;DHT22;11950;51.230;4.012;2022-11-14T19:28:23;9.30;99.90
23544;DHT22;11950;51.230;4.012;2022-11-14T19:31:09;9.30;99.90
23544;DHT22;11950;51.230;4.012;2022-11-14T19:33:54;9.30;99.90
23544;DHT22;11950;51.230;4.012;2022-11-14T19:36:39;9.40;99.90
23544;DHT22;11950;51.230;4.012;2022-11-14T19:39:24;9.40;99.90
23544;DHT22;11950;51.230;4.012;2022-11-14T19:42:09;9.40;99.90